sensor_id;sensor_type;location;lat;lon;timestamp;P1;durP1;ratioP1;P2;durP2;ratioP2
5412;SDS011;2729;50.056;8.678;2022-09-03T00:01:41;1.40;;;1.30;;
5412;SDS011;2729;50.056;8.678;2022-09-03T00:04:20;1.57;;;1.40;;
5412;SDS011;2729;50.056;8.678;2022-09-03T00:06:59;2.43;;;1.47;;
5412;SDS011;2729;50.056;8.678;2022-09-03T00:09:30;1.73;;;1.63;;
5412;SDS011;2729;50.056;8.678;2022-09-03T00:12:09;3.30;;;1.47;;
5412;SDS011;2729;50.056;8.678;2022-09-03T00:14:45;1.50;;;1.40;;
5412;SDS011;2729;50.056;8.678;2022-09-03T00:17:17;1.40;;;1.30;;
5412;SDS011;2729;50.056;8.678;2022-09-03T00:19:51;1.40;;;1.30;;
5412;SDS011;2729;50.056;8.678;2022-09-03T00:22:26;2.63;;;1.53;;
5412;SDS011;2729;50.056;8.678;2022-09-03T00:24:57;1.50;;;1.40;;
5412;SDS011;2729;50.056;8.678;2022-09-03T00:27:27;1.23;;;1.23;;
5412;SDS011;2729;50.056;8.678;2022-09-03T00:30:05;1.40;;;1.40;;
5412;SDS011;2729;50.056;8.678;2022-09-03T00:35:26;1.37;;;1.30;;
5412;SDS011;2729;50.056;8.678;2022-09-03T00:37:55;1.60;;;1.50;;
5412;SDS011;2729;50.056;8.678;2022-09-03T00:43:38;1.33;;;1.23;;
5412;SDS011;2729;50.056;8.678;2022-09-03T00:46:20;1.67;;;1.57;;
5412;SDS011;2729;50.056;8.678;2022-09-03T00:51:31;2.20;;;1.27;;
5412;SDS011;2729;50.056;8.678;2022-09-03T00:54:28;1.30;;;1.20;;
5412;SDS011;2729;50.056;8.678;2022-09-03T00:57:35;1.23;;;1.23;;
5412;SDS011;2729;50.056;8.678;2022-09-03T01:00:10;1.40;;;1.30;;
5412;SDS011;2729;50.056;8.678;2022-09-03T01:05:27;1.40;;;1.30;;
5412;SDS011;2729;50.056;8.678;2022-09-03T01:16:48;1.30;;;1.30;;
5412;SDS011;2729;50.056;8.678;2022-09-03T01:22:50;1.20;;;1.20;;
5412;SDS011;2729;50.056;8.678;2022-09-03T01:25:48;1.30;;;1.30;;
5412;SDS011;2729;50.056;8.678;2022-09-03T01:28:26;1.40;;;1.30;;
5412;SDS011;2729;50.056;8.678;2022-09-03T01:31:10;1.30;;;1.30;;
5412;SDS011;2729;50.056;8.678;2022-09-03T01:33:43;1.57;;;1.47;;
5412;SDS011;2729;50.056;8.678;2022-09-03T01:36:39;1.70;;;1.60;;
5412;SDS011;2729;50.056;8.678;2022-09-03T01:39:09;1.97;;;1.70;;
5412;SDS011;2729;50.056;8.678;2022-09-03T01:41:46;1.30;;;1.30;;
5412;SDS011;2729;50.056;8.678;2022-09-03T01:47:36;1.80;;;1.53;;
5412;SDS011;2729;50.056;8.678;2022-09-03T01:59:16;3.03;;;1.40;;
5412;SDS011;2729;50.056;8.678;2022-09-03T02:01:51;1.20;;;1.20;;
5412;SDS011;2729;50.056;8.678;2022-09-03T02:04:22;1.87;;;1.50;;
5412;SDS011;2729;50.056;8.678;2022-09-03T02:06:51;2.83;;;1.50;;
5412;SDS011;2729;50.056;8.678;2022-09-03T02:09:19;1.40;;;1.30;;
5412;SDS011;2729;50.056;8.678;2022-09-03T02:11:45;1.30;;;1.20;;
5412;SDS011;2729;50.056;8.678;2022-09-03T02:14:20;1.17;;;1.17;;
5412;SDS011;2729;50.056;8.678;2022-09-03T02:16:46;3.03;;;1.57;;
5412;SDS011;2729;50.056;8.678;2022-09-03T02:19:13;1.50;;;1.47;;
5412;SDS011;2729;50.056;8.678;2022-09-03T02:21:44;3.83;;;1.60;;
5412;SDS011;2729;50.056;8.678;2022-09-03T02:24:14;1.30;;;1.20;;
5412;SDS011;2729;50.056;8.678;2022-09-03T02:26:41;1.30;;;1.30;;
5412;SDS011;2729;50.056;8.678;2022-09-03T02:29:07;2.60;;;1.47;;
5412;SDS011;2729;50.056;8.678;2022-09-03T02:31:33;1.53;;;1.30;;
5412;SDS011;2729;50.056;8.678;2022-09-03T02:33:59;4.60;;;1.37;;
5412;SDS011;2729;50.056;8.678;2022-09-03T02:36:38;1.73;;;1.53;;
5412;SDS011;2729;50.056;8.678;2022-09-03T02:39:07;1.47;;;1.37;;
5412;SDS011;2729;50.056;8.678;2022-09-03T02:41:34;1.47;;;1.40;;
5412;SDS011;2729;50.056;8.678;2022-09-03T02:49:24;1.50;;;1.40;;
5412;SDS011;2729;50.056;8.678;2022-09-03T02:51:56;1.30;;;1.27;;
5412;SDS011;2729;50.056;8.678;2022-09-03T02:54:23;1.83;;;1.57;;
5412;SDS011;2729;50.056;8.678;2022-09-03T02:56:49;1.30;;;1.30;;
5412;SDS011;2729;50.056;8.678;2022-09-03T02:59:15;1.50;;;1.40;;
5412;SDS011;2729;50.056;8.678;2022-09-03T03:01:42;1.73;;;1.50;;
5412;SDS011;2729;50.056;8.678;2022-09-03T03:04:08;2.10;;;1.90;;
5412;SDS011;2729;50.056;8.678;2022-09-03T03:06:34;2.80;;;2.60;;
5412;SDS011;2729;50.056;8.678;2022-09-03T03:09:00;2.30;;;2.10;;
5412;SDS011;2729;50.056;8.678;2022-09-03T03:11:30;2.47;;;2.37;;
5412;SDS011;2729;50.056;8.678;2022-09-03T03:14:56;0.40;;;0.40;;
5412;SDS011;2729;50.056;8.678;2022-09-03T03:18:21;0.40;;;0.40;;
5412;SDS011;2729;50.056;8.678;2022-09-03T03:21:46;0.40;;;0.40;;
5412;SDS011;2729;50.056;8.678;2022-09-03T03:25:10;0.40;;;0.40;;
5412;SDS011;2729;50.056;8.678;2022-09-03T03:28:35;0.40;;;0.40;;
5412;SDS011;2729;50.056;8.678;2022-09-03T03:32:00;0.50;;;0.50;;
5412;SDS011;2729;50.056;8.678;2022-09-03T03:35:25;0.40;;;0.40;;
5412;SDS011;2729;50.056;8.678;2022-09-03T03:38:52;0.40;;;0.40;;
5412;SDS011;2729;50.056;8.678;2022-09-03T03:42:19;0.50;;;0.50;;
5412;SDS011;2729;50.056;8.678;2022-09-03T03:45:44;0.40;;;0.40;;
5412;SDS011;2729;50.056;8.678;2022-09-03T03:49:56;0.50;;;0.50;;
5412;SDS011;2729;50.056;8.678;2022-09-03T03:53:24;0.40;;;0.40;;
5412;SDS011;2729;50.056;8.678;2022-09-03T03:56:49;0.40;;;0.40;;
5412;SDS011;2729;50.056;8.678;2022-09-03T04:00:14;0.50;;;0.50;;
5412;SDS011;2729;50.056;8.678;2022-09-03T04:03:40;0.40;;;0.40;;
5412;SDS011;2729;50.056;8.678;2022-09-03T04:06:08;0.50;;;0.50;;
5412;SDS011;2729;50.056;8.678;2022-09-03T04:08:37;0.40;;;0.40;;
5412;SDS011;2729;50.056;8.678;2022-09-03T04:11:05;0.40;;;0.40;;
5412;SDS011;2729;50.056;8.678;2022-09-03T04:13:34;0.40;;;0.40;;
5412;SDS011;2729;50.056;8.678;2022-09-03T04:16:44;0.40;;;0.40;;
5412;SDS011;2729;50.056;8.678;2022-09-03T04:18:52;0.40;;;0.40;;
5412;SDS011;2729;50.056;8.678;2022-09-03T04:21:20;0.40;;;0.40;;
5412;SDS011;2729;50.056;8.678;2022-09-03T04:23:50;0.40;;;0.40;;
5412;SDS011;2729;50.056;8.678;2022-09-03T04:26:19;0.50;;;0.50;;
5412;SDS011;2729;50.056;8.678;2022-09-03T04:28:46;0.50;;;0.50;;
5412;SDS011;2729;50.056;8.678;2022-09-03T04:31:13;1.97;;;1.77;;
5412;SDS011;2729;50.056;8.678;2022-09-03T04:33:40;0.40;;;0.40;;
5412;SDS011;2729;50.056;8.678;2022-09-03T04:36:10;0.40;;;0.40;;
5412;SDS011;2729;50.056;8.678;2022-09-03T04:38:39;0.50;;;0.50;;
5412;SDS011;2729;50.056;8.678;2022-09-03T04:41:07;1.17;;;0.97;;
5412;SDS011;2729;50.056;8.678;2022-09-03T04:43:35;1.37;;;1.27;;
5412;SDS011;2729;50.056;8.678;2022-09-03T04:46:02;0.40;;;0.40;;
5412;SDS011;2729;50.056;8.678;2022-09-03T04:48:31;0.40;;;0.40;;
5412;SDS011;2729;50.056;8.678;2022-09-03T04:51:19;0.40;;;0.40;;
5412;SDS011;2729;50.056;8.678;2022-09-03T04:54:06;0.40;;;0.40;;
5412;SDS011;2729;50.056;8.678;2022-09-03T04:56:33;0.40;;;0.40;;
5412;SDS011;2729;50.056;8.678;2022-09-03T04:59:17;0.40;;;0.40;;
5412;SDS011;2729;50.056;8.678;2022-09-03T05:01:55;0.40;;;0.40;;
5412;SDS011;2729;50.056;8.678;2022-09-03T05:04:21;0.40;;;0.40;;
5412;SDS011;2729;50.056;8.678;2022-09-03T05:06:56;0.47;;;0.47;;
5412;SDS011;2729;50.056;8.678;2022-09-03T05:09:22;0.47;;;0.47;;
5412;SDS011;2729;50.056;8.678;2022-09-03T05:11:48;0.40;;;0.40;;
5412;SDS011;2729;50.056;8.678;2022-09-03T05:14:14;0.40;;;0.40;;
5412;SDS011;2729;50.056;8.678;2022-09-03T05:17:01;0.50;;;0.50;;
5412;SDS011;2729;50.056;8.678;2022-09-03T05:19:27;0.50;;;0.50;;
5412;SDS011;2729;50.056;8.678;2022-09-03T05:22:51;0.50;;;0.50;;
5412;SDS011;2729;50.056;8.678;2022-09-03T05:26:17;0.40;;;0.40;;
5412;SDS011;2729;50.056;8.678;2022-09-03T05:29:16;0.40;;;0.40;;
5412;SDS011;2729;50.056;8.678;2022-09-03T05:32:41;0.40;;;0.40;;
5412;SDS011;2729;50.056;8.678;2022-09-03T05:36:08;0.50;;;0.50;;
5412;SDS011;2729;50.056;8.678;2022-09-03T05:39:33;0.40;;;0.40;;
5412;SDS011;2729;50.056;8.678;2022-09-03T05:42:58;0.40;;;0.40;;
5412;SDS011;2729;50.056;8.678;2022-09-03T05:46:26;0.47;;;0.47;;
5412;SDS011;2729;50.056;8.678;2022-09-03T05:49:51;0.40;;;0.40;;
5412;SDS011;2729;50.056;8.678;2022-09-03T05:53:22;0.40;;;0.40;;
5412;SDS011;2729;50.056;8.678;2022-09-03T05:56:47;0.40;;;0.40;;
5412;SDS011;2729;50.056;8.678;2022-09-03T06:00:16;2.23;;;1.87;;
5412;SDS011;2729;50.056;8.678;2022-09-03T06:03:42;2.47;;;2.27;;
5412;SDS011;2729;50.056;8.678;2022-09-03T06:07:06;2.23;;;2.10;;
5412;SDS011;2729;50.056;8.678;2022-09-03T06:10:31;2.60;;;2.40;;
5412;SDS011;2729;50.056;8.678;2022-09-03T06:13:57;2.20;;;2.10;;
5412;SDS011;2729;50.056;8.678;2022-09-03T06:17:22;2.20;;;2.10;;
5412;SDS011;2729;50.056;8.678;2022-09-03T06:20:53;2.87;;;2.60;;
5412;SDS011;2729;50.056;8.678;2022-09-03T06:24:07;2.47;;;2.13;;
5412;SDS011;2729;50.056;8.678;2022-09-03T06:27:34;3.60;;;2.17;;
5412;SDS011;2729;50.056;8.678;2022-09-03T06:31:01;2.40;;;2.20;;
5412;SDS011;2729;50.056;8.678;2022-09-03T06:33:44;2.67;;;2.20;;
5412;SDS011;2729;50.056;8.678;2022-09-03T06:36:16;2.50;;;2.30;;
5412;SDS011;2729;50.056;8.678;2022-09-03T06:38:43;2.30;;;2.10;;
5412;SDS011;2729;50.056;8.678;2022-09-03T06:41:11;2.10;;;2.00;;
5412;SDS011;2729;50.056;8.678;2022-09-03T06:43:51;2.17;;;2.07;;
5412;SDS011;2729;50.056;8.678;2022-09-03T06:46:20;2.37;;;2.20;;
5412;SDS011;2729;50.056;8.678;2022-09-03T06:48:47;2.30;;;1.90;;
5412;SDS011;2729;50.056;8.678;2022-09-03T06:51:16;2.93;;;2.20;;
5412;SDS011;2729;50.056;8.678;2022-09-03T06:53:45;2.10;;;2.00;;
5412;SDS011;2729;50.056;8.678;2022-09-03T06:56:17;2.23;;;2.10;;
5412;SDS011;2729;50.056;8.678;2022-09-03T06:58:47;2.10;;;2.00;;
5412;SDS011;2729;50.056;8.678;2022-09-03T07:01:14;2.00;;;1.90;;
5412;SDS011;2729;50.056;8.678;2022-09-03T07:03:42;2.80;;;2.10;;
5412;SDS011;2729;50.056;8.678;2022-09-03T07:06:12;2.00;;;1.90;;
5412;SDS011;2729;50.056;8.678;2022-09-03T07:08:39;2.50;;;2.30;;
5412;SDS011;2729;50.056;8.678;2022-09-03T07:11:10;2.20;;;2.00;;
5412;SDS011;2729;50.056;8.678;2022-09-03T07:13:39;2.17;;;2.00;;
5412;SDS011;2729;50.056;8.678;2022-09-03T07:16:08;2.40;;;2.00;;
5412;SDS011;2729;50.056;8.678;2022-09-03T07:18:36;2.20;;;2.07;;
5412;SDS011;2729;50.056;8.678;2022-09-03T07:21:06;2.23;;;1.93;;
5412;SDS011;2729;50.056;8.678;2022-09-03T07:23:34;3.77;;;2.20;;
5412;SDS011;2729;50.056;8.678;2022-09-03T07:26:02;2.77;;;2.53;;
5412;SDS011;2729;50.056;8.678;2022-09-03T07:28:34;2.00;;;1.70;;
5412;SDS011;2729;50.056;8.678;2022-09-03T07:31:03;1.93;;;1.83;;
5412;SDS011;2729;50.056;8.678;2022-09-03T07:33:33;2.60;;;2.40;;
5412;SDS011;2729;50.056;8.678;2022-09-03T07:36:17;4.07;;;2.47;;
5412;SDS011;2729;50.056;8.678;2022-09-03T07:38:43;2.33;;;2.07;;
5412;SDS011;2729;50.056;8.678;2022-09-03T07:41:10;2.20;;;2.00;;
5412;SDS011;2729;50.056;8.678;2022-09-03T07:43:38;2.27;;;2.17;;
5412;SDS011;2729;50.056;8.678;2022-09-03T07:46:08;3.43;;;1.90;;
5412;SDS011;2729;50.056;8.678;2022-09-03T07:48:38;2.00;;;1.90;;
5412;SDS011;2729;50.056;8.678;2022-09-03T07:51:05;1.93;;;1.83;;
5412;SDS011;2729;50.056;8.678;2022-09-03T07:53:31;3.37;;;2.17;;
5412;SDS011;2729;50.056;8.678;2022-09-03T07:56:02;2.47;;;2.27;;
5412;SDS011;2729;50.056;8.678;2022-09-03T07:58:30;2.20;;;2.10;;
5412;SDS011;2729;50.056;8.678;2022-09-03T08:00:58;2.10;;;2.00;;
5412;SDS011;2729;50.056;8.678;2022-09-03T08:03:28;2.00;;;1.90;;
5412;SDS011;2729;50.056;8.678;2022-09-03T08:05:54;1.97;;;1.87;;
5412;SDS011;2729;50.056;8.678;2022-09-03T08:08:25;1.93;;;1.83;;
5412;SDS011;2729;50.056;8.678;2022-09-03T08:10:51;2.33;;;2.17;;
5412;SDS011;2729;50.056;8.678;2022-09-03T08:13:17;2.57;;;2.37;;
5412;SDS011;2729;50.056;8.678;2022-09-03T08:15:52;2.27;;;2.10;;
5412;SDS011;2729;50.056;8.678;2022-09-03T08:18:19;2.40;;;2.20;;
5412;SDS011;2729;50.056;8.678;2022-09-03T08:20:45;4.60;;;2.80;;
5412;SDS011;2729;50.056;8.678;2022-09-03T08:23:11;2.63;;;2.13;;
5412;SDS011;2729;50.056;8.678;2022-09-03T08:25:37;6.53;;;2.60;;
5412;SDS011;2729;50.056;8.678;2022-09-03T08:28:03;2.40;;;2.20;;
5412;SDS011;2729;50.056;8.678;2022-09-03T08:30:29;4.00;;;2.33;;
5412;SDS011;2729;50.056;8.678;2022-09-03T08:32:55;2.80;;;2.60;;
5412;SDS011;2729;50.056;8.678;2022-09-03T08:35:21;3.23;;;2.67;;
5412;SDS011;2729;50.056;8.678;2022-09-03T08:37:47;3.10;;;2.80;;
5412;SDS011;2729;50.056;8.678;2022-09-03T08:40:16;4.77;;;2.60;;
5412;SDS011;2729;50.056;8.678;2022-09-03T08:42:54;2.60;;;2.50;;
5412;SDS011;2729;50.056;8.678;2022-09-03T08:45:30;2.60;;;2.40;;
5412;SDS011;2729;50.056;8.678;2022-09-03T08:48:08;2.70;;;2.50;;
5412;SDS011;2729;50.056;8.678;2022-09-03T08:50:40;3.10;;;2.80;;
5412;SDS011;2729;50.056;8.678;2022-09-03T08:53:20;4.47;;;3.03;;
5412;SDS011;2729;50.056;8.678;2022-09-03T08:55:52;8.10;;;3.07;;
5412;SDS011;2729;50.056;8.678;2022-09-03T08:58:25;2.93;;;2.60;;
5412;SDS011;2729;50.056;8.678;2022-09-03T09:01:06;4.10;;;2.90;;
5412;SDS011;2729;50.056;8.678;2022-09-03T09:15:04;11.43;;;3.30;;
5412;SDS011;2729;50.056;8.678;2022-09-03T09:23:19;3.57;;;3.07;;
5412;SDS011;2729;50.056;8.678;2022-09-03T09:25:52;3.13;;;2.93;;
5412;SDS011;2729;50.056;8.678;2022-09-03T09:28:24;3.20;;;3.00;;
5412;SDS011;2729;50.056;8.678;2022-09-03T09:30:55;5.70;;;3.20;;
5412;SDS011;2729;50.056;8.678;2022-09-03T09:33:22;2.90;;;2.70;;
5412;SDS011;2729;50.056;8.678;2022-09-03T09:35:48;3.43;;;3.13;;
5412;SDS011;2729;50.056;8.678;2022-09-03T09:38:14;3.23;;;3.03;;
5412;SDS011;2729;50.056;8.678;2022-09-03T09:40:53;3.40;;;3.10;;
5412;SDS011;2729;50.056;8.678;2022-09-03T09:43:21;3.30;;;3.10;;
5412;SDS011;2729;50.056;8.678;2022-09-03T09:45:51;3.80;;;3.50;;
5412;SDS011;2729;50.056;8.678;2022-09-03T09:51:04;3.47;;;3.20;;
5412;SDS011;2729;50.056;8.678;2022-09-03T09:53:33;3.33;;;3.00;;
5412;SDS011;2729;50.056;8.678;2022-09-03T09:55:59;2.90;;;2.70;;
5412;SDS011;2729;50.056;8.678;2022-09-03T09:58:27;3.40;;;3.13;;
5412;SDS011;2729;50.056;8.678;2022-09-03T10:00:59;3.30;;;3.10;;
5412;SDS011;2729;50.056;8.678;2022-09-03T10:03:39;3.83;;;3.43;;
5412;SDS011;2729;50.056;8.678;2022-09-03T10:06:14;2.93;;;2.70;;
5412;SDS011;2729;50.056;8.678;2022-09-03T10:09:06;3.57;;;3.27;;
5412;SDS011;2729;50.056;8.678;2022-09-03T10:11:36;3.70;;;3.40;;
5412;SDS011;2729;50.056;8.678;2022-09-03T10:14:08;4.73;;;3.40;;
5412;SDS011;2729;50.056;8.678;2022-09-03T10:16:41;3.87;;;3.57;;
5412;SDS011;2729;50.056;8.678;2022-09-03T10:19:20;4.77;;;3.90;;
5412;SDS011;2729;50.056;8.678;2022-09-03T10:22:15;3.30;;;3.10;;
5412;SDS011;2729;50.056;8.678;2022-09-03T10:24:53;4.17;;;3.20;;
5412;SDS011;2729;50.056;8.678;2022-09-03T10:27:23;4.03;;;3.43;;
5412;SDS011;2729;50.056;8.678;2022-09-03T10:29:50;3.77;;;2.90;;
5412;SDS011;2729;50.056;8.678;2022-09-03T10:32:37;4.37;;;3.80;;
5412;SDS011;2729;50.056;8.678;2022-09-03T10:35:26;3.30;;;3.00;;
5412;SDS011;2729;50.056;8.678;2022-09-03T10:40:54;3.80;;;3.43;;
5412;SDS011;2729;50.056;8.678;2022-09-03T10:46:41;3.40;;;3.20;;
5412;SDS011;2729;50.056;8.678;2022-09-03T10:49:23;3.73;;;3.27;;
5412;SDS011;2729;50.056;8.678;2022-09-03T10:54:59;3.80;;;3.10;;
5412;SDS011;2729;50.056;8.678;2022-09-03T10:57:42;3.80;;;3.43;;
5412;SDS011;2729;50.056;8.678;2022-09-03T11:00:13;3.53;;;3.33;;
5412;SDS011;2729;50.056;8.678;2022-09-03T11:03:04;4.70;;;3.27;;
5412;SDS011;2729;50.056;8.678;2022-09-03T11:05:55;12.80;;;3.20;;
5412;SDS011;2729;50.056;8.678;2022-09-03T11:08:30;3.83;;;3.23;;
5412;SDS011;2729;50.056;8.678;2022-09-03T11:11:05;3.33;;;3.13;;
5412;SDS011;2729;50.056;8.678;2022-09-03T11:13:47;3.80;;;3.50;;
5412;SDS011;2729;50.056;8.678;2022-09-03T11:16:22;4.00;;;3.70;;
5412;SDS011;2729;50.056;8.678;2022-09-03T11:19:01;2.97;;;2.77;;
5412;SDS011;2729;50.056;8.678;2022-09-03T11:21:30;3.70;;;3.40;;
5412;SDS011;2729;50.056;8.678;2022-09-03T11:24:11;3.37;;;3.17;;
5412;SDS011;2729;50.056;8.678;2022-09-03T11:26:43;3.10;;;2.90;;
5412;SDS011;2729;50.056;8.678;2022-09-03T11:29:19;4.07;;;3.20;;
5412;SDS011;2729;50.056;8.678;2022-09-03T11:32:07;2.70;;;2.50;;
5412;SDS011;2729;50.056;8.678;2022-09-03T11:34:44;3.37;;;3.17;;
5412;SDS011;2729;50.056;8.678;2022-09-03T11:37:15;3.27;;;3.07;;
5412;SDS011;2729;50.056;8.678;2022-09-03T11:39:53;3.20;;;3.00;;
5412;SDS011;2729;50.056;8.678;2022-09-03T11:42:28;3.80;;;3.50;;
5412;SDS011;2729;50.056;8.678;2022-09-03T11:47:48;2.50;;;2.40;;
5412;SDS011;2729;50.056;8.678;2022-09-03T11:50:20;2.73;;;2.60;;
5412;SDS011;2729;50.056;8.678;2022-09-03T11:52:54;2.80;;;2.60;;
5412;SDS011;2729;50.056;8.678;2022-09-03T11:55:47;1.97;;;1.77;;
5412;SDS011;2729;50.056;8.678;2022-09-03T11:58:33;3.77;;;2.23;;
5412;SDS011;2729;50.056;8.678;2022-09-03T12:01:03;2.43;;;2.30;;
5412;SDS011;2729;50.056;8.678;2022-09-03T12:03:53;2.80;;;2.60;;
5412;SDS011;2729;50.056;8.678;2022-09-03T12:06:37;2.87;;;2.67;;
5412;SDS011;2729;50.056;8.678;2022-09-03T12:14:49;2.90;;;2.70;;
5412;SDS011;2729;50.056;8.678;2022-09-03T12:17:43;2.80;;;2.60;;
5412;SDS011;2729;50.056;8.678;2022-09-03T12:20:38;2.70;;;2.50;;
5412;SDS011;2729;50.056;8.678;2022-09-03T12:23:05;2.70;;;2.50;;
5412;SDS011;2729;50.056;8.678;2022-09-03T12:25:32;3.07;;;2.83;;
5412;SDS011;2729;50.056;8.678;2022-09-03T12:27:59;2.67;;;2.47;;
5412;SDS011;2729;50.056;8.678;2022-09-03T12:30:28;2.10;;;2.00;;
5412;SDS011;2729;50.056;8.678;2022-09-03T12:33:04;2.67;;;2.57;;
5412;SDS011;2729;50.056;8.678;2022-09-03T12:35:32;2.40;;;2.30;;
5412;SDS011;2729;50.056;8.678;2022-09-03T12:37:58;3.17;;;2.87;;
5412;SDS011;2729;50.056;8.678;2022-09-03T12:40:25;2.33;;;2.20;;
5412;SDS011;2729;50.056;8.678;2022-09-03T12:42:53;2.70;;;2.50;;
5412;SDS011;2729;50.056;8.678;2022-09-03T12:45:21;2.67;;;2.47;;
5412;SDS011;2729;50.056;8.678;2022-09-03T12:47:48;1.93;;;1.83;;
5412;SDS011;2729;50.056;8.678;2022-09-03T12:50:16;2.17;;;2.07;;
5412;SDS011;2729;50.056;8.678;2022-09-03T12:52:47;2.00;;;1.90;;
5412;SDS011;2729;50.056;8.678;2022-09-03T12:55:24;2.73;;;2.47;;
5412;SDS011;2729;50.056;8.678;2022-09-03T12:58:08;2.20;;;2.00;;
5412;SDS011;2729;50.056;8.678;2022-09-03T13:00:40;2.80;;;2.40;;
5412;SDS011;2729;50.056;8.678;2022-09-03T13:03:12;4.90;;;2.03;;
5412;SDS011;2729;50.056;8.678;2022-09-03T13:05:51;2.27;;;2.13;;
5412;SDS011;2729;50.056;8.678;2022-09-03T13:08:22;4.40;;;2.30;;
5412;SDS011;2729;50.056;8.678;2022-09-03T13:10:52;2.27;;;2.07;;
5412;SDS011;2729;50.056;8.678;2022-09-03T13:13:26;3.50;;;2.40;;
5412;SDS011;2729;50.056;8.678;2022-09-03T13:21:42;1.93;;;1.73;;
5412;SDS011;2729;50.056;8.678;2022-09-03T13:24:49;5.63;;;2.00;;
5412;SDS011;2729;50.056;8.678;2022-09-03T13:30:37;2.17;;;1.97;;
5412;SDS011;2729;50.056;8.678;2022-09-03T13:33:19;3.37;;;2.00;;
5412;SDS011;2729;50.056;8.678;2022-09-03T13:36:35;2.60;;;2.40;;
5412;SDS011;2729;50.056;8.678;2022-09-03T13:38:57;3.60;;;2.83;;
5412;SDS011;2729;50.056;8.678;2022-09-03T13:41:35;2.40;;;2.30;;
5412;SDS011;2729;50.056;8.678;2022-09-03T13:49:29;3.93;;;2.00;;
5412;SDS011;2729;50.056;8.678;2022-09-03T13:52:23;3.57;;;2.40;;
5412;SDS011;2729;50.056;8.678;2022-09-03T13:55:06;1.83;;;1.73;;
5412;SDS011;2729;50.056;8.678;2022-09-03T13:57:38;1.80;;;1.70;;
5412;SDS011;2729;50.056;8.678;2022-09-03T14:00:13;1.80;;;1.70;;
5412;SDS011;2729;50.056;8.678;2022-09-03T14:06:06;2.57;;;1.80;;
5412;SDS011;2729;50.056;8.678;2022-09-03T14:08:52;1.80;;;1.70;;
5412;SDS011;2729;50.056;8.678;2022-09-03T14:14:50;1.53;;;1.43;;
5412;SDS011;2729;50.056;8.678;2022-09-03T14:19:54;1.90;;;1.63;;
5412;SDS011;2729;50.056;8.678;2022-09-03T14:22:23;2.77;;;1.60;;
5412;SDS011;2729;50.056;8.678;2022-09-03T14:25:00;1.60;;;1.60;;
5412;SDS011;2729;50.056;8.678;2022-09-03T14:27:33;1.67;;;1.57;;
5412;SDS011;2729;50.056;8.678;2022-09-03T14:30:01;2.03;;;1.87;;
5412;SDS011;2729;50.056;8.678;2022-09-03T14:38:12;2.40;;;2.20;;
5412;SDS011;2729;50.056;8.678;2022-09-03T14:46:33;1.80;;;1.70;;
5412;SDS011;2729;50.056;8.678;2022-09-03T15:01:00;2.17;;;1.43;;
5412;SDS011;2729;50.056;8.678;2022-09-03T15:03:43;1.73;;;1.67;;
5412;SDS011;2729;50.056;8.678;2022-09-03T15:11:50;1.83;;;1.73;;
5412;SDS011;2729;50.056;8.678;2022-09-03T15:14:41;1.83;;;1.73;;
5412;SDS011;2729;50.056;8.678;2022-09-03T15:17:26;1.80;;;1.70;;
5412;SDS011;2729;50.056;8.678;2022-09-03T15:20:07;2.20;;;2.00;;
5412;SDS011;2729;50.056;8.678;2022-09-03T15:28:45;1.80;;;1.70;;
5412;SDS011;2729;50.056;8.678;2022-09-03T15:34:09;1.60;;;1.50;;
5412;SDS011;2729;50.056;8.678;2022-09-03T15:36:45;2.37;;;2.17;;
5412;SDS011;2729;50.056;8.678;2022-09-03T15:39:22;2.10;;;2.00;;
5412;SDS011;2729;50.056;8.678;2022-09-03T15:41:53;2.47;;;1.90;;
5412;SDS011;2729;50.056;8.678;2022-09-03T15:44:22;1.90;;;1.80;;
5412;SDS011;2729;50.056;8.678;2022-09-03T15:46:55;1.90;;;1.80;;
5412;SDS011;2729;50.056;8.678;2022-09-03T15:49:35;1.80;;;1.70;;
5412;SDS011;2729;50.056;8.678;2022-09-03T15:52:25;1.60;;;1.50;;
5412;SDS011;2729;50.056;8.678;2022-09-03T15:54:59;3.80;;;2.20;;
5412;SDS011;2729;50.056;8.678;2022-09-03T16:00:55;4.23;;;1.40;;
5412;SDS011;2729;50.056;8.678;2022-09-03T16:06:19;2.57;;;1.70;;
5412;SDS011;2729;50.056;8.678;2022-09-03T16:09:03;1.70;;;1.60;;
5412;SDS011;2729;50.056;8.678;2022-09-03T16:14:30;3.00;;;2.10;;
5412;SDS011;2729;50.056;8.678;2022-09-03T16:17:13;1.87;;;1.77;;
5412;SDS011;2729;50.056;8.678;2022-09-03T16:20:02;1.80;;;1.70;;
5412;SDS011;2729;50.056;8.678;2022-09-03T16:22:36;1.87;;;1.77;;
5412;SDS011;2729;50.056;8.678;2022-09-03T16:25:19;1.87;;;1.77;;
5412;SDS011;2729;50.056;8.678;2022-09-03T16:27:54;1.83;;;1.70;;
5412;SDS011;2729;50.056;8.678;2022-09-03T16:33:21;1.90;;;1.80;;
5412;SDS011;2729;50.056;8.678;2022-09-03T16:38:45;1.80;;;1.70;;
5412;SDS011;2729;50.056;8.678;2022-09-03T16:41:23;1.80;;;1.70;;
5412;SDS011;2729;50.056;8.678;2022-09-03T16:44:11;2.10;;;2.00;;
5412;SDS011;2729;50.056;8.678;2022-09-03T16:52:11;2.03;;;1.60;;
5412;SDS011;2729;50.056;8.678;2022-09-03T16:55:01;1.87;;;1.77;;
5412;SDS011;2729;50.056;8.678;2022-09-03T17:00:14;2.03;;;1.93;;
5412;SDS011;2729;50.056;8.678;2022-09-03T17:03:00;2.37;;;2.20;;
5412;SDS011;2729;50.056;8.678;2022-09-03T17:17:10;2.87;;;1.27;;
5412;SDS011;2729;50.056;8.678;2022-09-03T17:19:52;1.23;;;0.80;;
5412;SDS011;2729;50.056;8.678;2022-09-03T17:25:39;0.80;;;0.80;;
5412;SDS011;2729;50.056;8.678;2022-09-03T17:31:19;0.80;;;0.80;;
5412;SDS011;2729;50.056;8.678;2022-09-03T17:34:11;1.70;;;1.60;;
5412;SDS011;2729;50.056;8.678;2022-09-03T17:40:10;1.67;;;0.90;;
5412;SDS011;2729;50.056;8.678;2022-09-03T17:43:01;0.80;;;0.80;;
5412;SDS011;2729;50.056;8.678;2022-09-03T17:45:52;2.73;;;0.80;;
5412;SDS011;2729;50.056;8.678;2022-09-03T17:51:25;4.73;;;0.90;;
5412;SDS011;2729;50.056;8.678;2022-09-03T17:54:07;0.90;;;0.90;;
5412;SDS011;2729;50.056;8.678;2022-09-03T17:59:55;1.07;;;0.80;;
5412;SDS011;2729;50.056;8.678;2022-09-03T18:02:27;0.93;;;0.80;;
5412;SDS011;2729;50.056;8.678;2022-09-03T18:05:02;1.00;;;0.90;;
5412;SDS011;2729;50.056;8.678;2022-09-03T18:07:48;1.03;;;0.90;;
5412;SDS011;2729;50.056;8.678;2022-09-03T18:15:59;1.33;;;1.23;;
5412;SDS011;2729;50.056;8.678;2022-09-03T18:18:47;0.80;;;0.80;;
5412;SDS011;2729;50.056;8.678;2022-09-03T18:21:23;0.70;;;0.70;;
5412;SDS011;2729;50.056;8.678;2022-09-03T18:24:18;1.00;;;1.00;;
5412;SDS011;2729;50.056;8.678;2022-09-03T18:27:20;1.20;;;1.07;;
5412;SDS011;2729;50.056;8.678;2022-09-03T18:30:11;0.70;;;0.70;;
5412;SDS011;2729;50.056;8.678;2022-09-03T18:32:58;1.43;;;1.00;;
5412;SDS011;2729;50.056;8.678;2022-09-03T18:35:42;0.97;;;0.97;;
5412;SDS011;2729;50.056;8.678;2022-09-03T18:38:29;0.90;;;0.90;;
5412;SDS011;2729;50.056;8.678;2022-09-03T18:47:35;0.73;;;0.73;;
5412;SDS011;2729;50.056;8.678;2022-09-03T18:57:29;1.33;;;0.70;;
5412;SDS011;2729;50.056;8.678;2022-09-03T19:00:24;2.50;;;1.00;;
5412;SDS011;2729;50.056;8.678;2022-09-03T19:03:21;2.17;;;0.63;;
5412;SDS011;2729;50.056;8.678;2022-09-03T19:06:15;0.80;;;0.70;;
5412;SDS011;2729;50.056;8.678;2022-09-03T19:15:28;0.73;;;0.73;;
5412;SDS011;2729;50.056;8.678;2022-09-03T19:18:34;0.77;;;0.77;;
5412;SDS011;2729;50.056;8.678;2022-09-03T19:21:36;1.10;;;0.70;;
5412;SDS011;2729;50.056;8.678;2022-09-03T19:24:25;0.90;;;0.90;;
5412;SDS011;2729;50.056;8.678;2022-09-03T19:30:25;0.70;;;0.70;;
5412;SDS011;2729;50.056;8.678;2022-09-03T19:46:18;1.33;;;1.00;;
5412;SDS011;2729;50.056;8.678;2022-09-03T19:55:34;1.10;;;1.00;;
5412;SDS011;2729;50.056;8.678;2022-09-03T19:58:23;0.80;;;0.80;;
5412;SDS011;2729;50.056;8.678;2022-09-03T20:01:11;0.70;;;0.70;;
5412;SDS011;2729;50.056;8.678;2022-09-03T20:03:57;0.87;;;0.73;;
5412;SDS011;2729;50.056;8.678;2022-09-03T20:09:52;0.80;;;0.80;;
5412;SDS011;2729;50.056;8.678;2022-09-03T20:12:44;1.00;;;0.80;;
5412;SDS011;2729;50.056;8.678;2022-09-03T20:18:43;0.93;;;0.93;;
5412;SDS011;2729;50.056;8.678;2022-09-03T20:21:26;0.80;;;0.80;;
5412;SDS011;2729;50.056;8.678;2022-09-03T20:24:14;0.80;;;0.80;;
5412;SDS011;2729;50.056;8.678;2022-09-03T20:35:43;5.07;;;1.00;;
5412;SDS011;2729;50.056;8.678;2022-09-03T20:48:58;2.60;;;0.90;;
5412;SDS011;2729;50.056;8.678;2022-09-03T20:51:43;0.90;;;0.90;;
5412;SDS011;2729;50.056;8.678;2022-09-03T20:57:17;0.83;;;0.83;;
5412;SDS011;2729;50.056;8.678;2022-09-03T21:00:09;1.00;;;0.90;;
5412;SDS011;2729;50.056;8.678;2022-09-03T21:11:17;3.70;;;0.80;;
5412;SDS011;2729;50.056;8.678;2022-09-03T21:22:10;1.10;;;1.00;;